Time;durP1;ratioP1;P1;durP2;ratioP2;P2;SDS_P1;SDS_P2;PMS_P1;PMS_P2;Temp;Humidity;BMP_temperature;BMP_pressure;BME280_temperature;BME280_humidity;BME280_pressure;Samples;Min_cycle;Max_cycle;Signal;HPM_P1;HPM_P2
2023/12/02 00:01:19;;;;;;;25.38;12.80;;;6.50;94.30;;;;;;7382060;19;20016;-73
2023/12/02 00:03:50;;;;;;;28.17;12.85;;;6.60;94.40;;;;;;7404292;19;20032;-74
2023/12/02 00:06:19;;;;;;;33.45;12.63;;;6.50;94.00;;;;;;7388987;19;20013;-74
2023/12/02 00:08:48;;;;;;;21.52;11.32;;;6.60;94.30;;;;;;7387309;19;20023;-75
2023/12/02 00:11:16;;;;;;;24.33;11.18;;;6.60;93.80;;;;;;7387632;19;20066;-73
2023/12/02 00:13:45;;;;;;;30.90;12.40;;;6.50;93.40;;;;;;7388036;19;20052;-73
2023/12/02 00:16:14;;;;;;;23.77;10.70;;;6.50;93.80;;;;;;7388142;19;20022;-73
2023/12/02 00:18:42;;;;;;;23.20;11.35;;;6.50;93.70;;;;;;7410477;19;20386;-73
2023/12/02 00:21:14;;;;;;;27.80;13.38;;;6.50;93.50;;;;;;7387078;19;20010;-73
2023/12/02 00:23:42;;;;;;;26.48;11.30;;;6.50;93.90;;;;;;7387642;19;20324;-74
2023/12/02 00:26:11;;;;;;;27.30;11.35;;;6.40;93.50;;;;;;7387515;19;20006;-73
2023/12/02 00:28:40;;;;;;;26.25;10.63;;;6.40;93.50;;;;;;7388005;19;20027;-72
2023/12/02 00:31:09;;;;;;;24.35;12.55;;;6.10;93.10;;;;;;7388007;19;20086;-73
2023/12/02 00:33:38;;;;;;;26.70;11.02;;;6.10;93.40;;;;;;7410634;19;20086;-73
2023/12/02 00:36:08;;;;;;;34.80;10.68;;;6.10;93.30;;;;;;7387171;19;20070;-72
2023/12/02 00:38:39;;;;;;;25.60;10.95;;;6.00;93.30;;;;;;7387385;19;20007;-72
2023/12/02 00:41:11;;;;;;;29.02;11.65;;;5.90;93.00;;;;;;7387305;19;20007;-73
2023/12/02 00:43:53;;;;;;;24.35;10.73;;;5.90;93.10;;;;;;7388046;19;20006;-75
2023/12/02 00:46:25;;;;;;;;;;;5.90;93.30;;;;;;7389079;19;20039;-75
2023/12/02 00:48:54;;;;;;;30.25;11.40;;;6.00;93.30;;;;;;7386236;19;19918;-74
2023/12/02 00:51:23;;;;;;;28.45;11.93;;;6.00;93.60;;;;;;7404247;19;20023;-74
2023/12/02 00:53:54;;;;;;;25.05;11.52;;;6.10;93.60;;;;;;7382470;19;20019;-74
2023/12/02 00:56:23;;;;;;;30.55;11.68;;;6.10;93.20;;;;;;7389247;19;20017;-74
2023/12/02 00:58:51;;;;;;;29.13;11.70;;;5.90;93.20;;;;;;7392311;19;20006;-73
2023/12/02 01:01:20;;;;;;;26.98;11.52;;;6.10;93.60;;;;;;7390350;19;20011;-74
2023/12/02 01:03:49;;;;;;;26.50;12.10;;;6.00;93.60;;;;;;7407160;19;20033;-74
2023/12/02 01:06:17;;;;;;;35.83;14.18;;;6.00;93.50;;;;;;7386573;19;20055;-75
2023/12/02 01:08:46;;;;;;;29.98;13.25;;;6.10;93.70;;;;;;7382020;19;20019;-75
2023/12/02 01:11:17;;;;;;;37.17;14.25;;;6.10;93.60;;;;;;7382393;19;20010;-75
2023/12/02 01:13:46;;;;;;;22.90;11.88;;;6.20;93.60;;;;;;7382832;19;20015;-74
2023/12/02 01:16:15;;;;;;;26.65;11.18;;;6.10;93.10;;;;;;7383512;19;20089;-74
2023/12/02 01:21:54;;;;;;;28.33;12.70;;;6.10;93.80;;;;;;7278986;19;2004606;-74
2023/12/02 01:24:23;;;;;;;25.02;11.95;;;6.20;93.90;;;;;;7404672;19;20449;-74
2023/12/02 01:26:54;;;;;;;26.67;11.77;;;6.10;93.00;;;;;;7381112;19;20002;-74
2023/12/02 01:29:23;;;;;;;29.20;12.15;;;6.10;93.00;;;;;;7380033;19;20027;-74
2023/12/02 01:31:51;;;;;;;25.92;11.77;;;6.20;93.10;;;;;;7379838;19;20007;-74
2023/12/02 01:34:20;;;;;;;27.80;11.05;;;6.20;93.10;;;;;;7381152;19;20261;-74
2023/12/02 01:36:49;;;;;;;25.15;11.60;;;6.20;93.10;;;;;;7407131;19;20058;-74
2023/12/02 01:39:17;;;;;;;23.73;12.00;;;6.00;92.70;;;;;;7380907;19;20006;-74
2023/12/02 01:41:48;;;;;;;29.52;12.20;;;5.90;92.90;;;;;;7383724;19;20082;-74
2023/12/02 01:44:19;;;;;;;19.58;9.40;;;5.90;93.30;;;;;;7381079;19;20041;-74
2023/12/02 01:46:48;;;;;;;;;;;6.10;93.50;;;;;;7381879;19;20006;-74
2023/12/02 01:49:17;;;;;;;30.13;10.38;;;6.20;93.40;;;;;;7380878;19;19911;-74
2023/12/02 01:51:46;;;;;;;27.65;10.40;;;6.10;93.20;;;;;;7402536;19;20382;-74
2023/12/02 01:54:14;;;;;;;24.83;10.82;;;6.00;93.00;;;;;;7379668;19;20007;-75
2023/12/02 01:56:43;;;;;;;22.83;10.93;;;6.00;93.10;;;;;;7380242;19;20014;-74
2023/12/02 01:59:14;;;;;;;24.35;10.98;;;6.10;93.40;;;;;;7381117;19;20003;-75
2023/12/02 02:01:45;;;;;;;23.17;10.13;;;6.10;93.30;;;;;;7379996;19;20385;-75
2023/12/02 02:04:13;;;;;;;;;;;6.10;92.50;;;;;;7381216;19;20014;-74
2023/12/02 02:06:42;;;;;;;21.52;9.88;;;6.10;92.50;;;;;;7401236;19;19907;-74
2023/12/02 02:09:13;;;;;;;24.48;10.65;;;6.20;92.70;;;;;;7380883;19;20011;-73
2023/12/02 02:11:42;;;;;;;28.77;11.02;;;6.20;93.10;;;;;;7379541;19;20086;-74
2023/12/02 02:14:11;;;;;;;23.42;10.68;;;6.10;92.70;;;;;;7380052;19;20054;-73
2023/12/02 02:16:40;;;;;;;23.15;10.43;;;6.30;93.10;;;;;;7379641;19;20015;-74
2023/12/02 02:19:13;;;;;;;25.70;11.35;;;6.20;92.60;;;;;;7380630;19;20063;-74
2023/12/02 02:21:44;;;;;;;23.70;11.07;;;6.00;92.70;;;;;;7402109;19;20010;-75
2023/12/02 02:24:13;;;;;;;24.50;10.60;;;6.10;92.90;;;;;;7379850;19;20420;-74
2023/12/02 02:26:41;;;;;;;25.80;11.50;;;6.10;93.20;;;;;;7380571;19;20285;-74
2023/12/02 02:29:13;;;;;;;24.33;11.25;;;6.20;93.30;;;;;;7379221;19;20006;-73
2023/12/02 02:31:41;;;;;;;24.55;11.55;;;6.10;92.60;;;;;;7380257;19;20367;-73
2023/12/02 02:34:10;;;;;;;31.33;11.55;;;6.10;92.70;;;;;;7379774;19;20022;-73
2023/12/02 02:36:41;;;;;;;24.73;12.02;;;5.90;93.00;;;;;;7400499;19;20003;-73
2023/12/02 02:39:12;;;;;;;29.52;11.20;;;5.90;93.10;;;;;;7378998;19;20028;-75
2023/12/02 02:41:41;;;;;;;;;;;6.10;93.30;;;;;;7379061;19;20328;-74
2023/12/02 02:44:10;;;;;;;21.73;9.95;;;6.10;93.00;;;;;;7378646;19;20242;-75
2023/12/02 02:46:39;;;;;;;31.13;12.02;;;6.10;93.00;;;;;;7379073;19;20011;-74
2023/12/02 02:49:08;;;;;;;28.75;12.00;;;6.10;93.40;;;;;;7379500;19;20402;-73
2023/12/02 02:51:36;;;;;;;30.15;12.32;;;6.10;93.10;;;;;;7398778;19;20009;-74
2023/12/02 02:54:05;;;;;;;27.80;12.82;;;6.00;93.10;;;;;;7378083;19;20453;-73
2023/12/02 02:56:36;;;;;;;26.27;11.45;;;6.10;93.50;;;;;;7378226;19;20678;-74
2023/12/02 02:59:06;;;;;;;26.83;12.95;;;6.10;93.60;;;;;;7378784;19;20028;-73
2023/12/02 03:01:35;;;;;;;28.63;12.57;;;6.10;93.70;;;;;;7382128;19;19998;-73
2023/12/02 03:04:03;;;;;;;30.25;13.35;;;6.20;94.00;;;;;;7377017;19;20018;-74
2023/12/02 03:06:34;;;;;;;31.08;12.88;;;6.20;93.70;;;;;;7399766;19;20011;-74
2023/12/02 03:09:05;;;;;;;34.80;12.52;;;6.30;93.60;;;;;;7378294;19;20054;-74
2023/12/02 03:11:36;;;;;;;32.43;12.30;;;6.10;92.90;;;;;;7377756;19;20366;-73
2023/12/02 03:14:05;;;;;;;23.83;9.80;;;6.10;92.90;;;;;;7378288;19;20007;-74
2023/12/02 03:16:34;;;;;;;32.50;13.15;;;6.10;92.90;;;;;;7380836;19;20342;-74
2023/12/02 03:19:03;;;;;;;33.13;12.88;;;5.90;93.40;;;;;;7385325;19;20023;-75
2023/12/02 03:21:32;;;;;;;25.20;11.82;;;5.90;93.20;;;;;;7407113;19;20326;-74
2023/12/02 03:24:00;;;;;;;29.63;13.10;;;6.00;93.30;;;;;;7384914;19;20002;-74
2023/12/02 03:26:29;;;;;;;31.30;13.15;;;6.00;93.10;;;;;;7386100;19;20078;-74
2023/12/02 03:29:00;;;;;;;27.33;12.05;;;6.10;93.10;;;;;;7383210;19;20019;-74
2023/12/02 03:31:29;;;;;;;32.53;13.55;;;6.00;92.90;;;;;;7376074;19;20011;-75
2023/12/02 03:33:58;;;;;;;30.00;13.43;;;5.80;92.80;;;;;;7377410;19;20027;-74
2023/12/02 03:36:26;;;;;;;31.77;13.00;;;5.80;93.30;;;;;;7398760;19;20023;-73
2023/12/02 03:38:57;;;;;;;33.63;12.93;;;5.70;93.40;;;;;;7376649;19;20079;-74
2023/12/02 03:41:25;;;;;;;35.28;13.35;;;5.60;93.30;;;;;;7386136;19;20007;-74
2023/12/02 03:43:55;;;;;;;32.92;12.63;;;5.50;93.60;;;;;;7384381;19;20002;-74
2023/12/02 03:46:29;;;;;;;30.50;13.00;;;5.50;93.70;;;;;;7384781;19;20066;-74
2023/12/02 03:48:58;;;;;;;39.75;14.00;;;5.50;93.90;;;;;;7384711;19;20011;-74
2023/12/02 03:51:26;;;;;;;31.25;13.70;;;5.30;93.80;;;;;;7405663;19;20066;-75
2023/12/02 03:53:55;;;;;;;31.73;13.25;;;5.40;94.30;;;;;;7383227;19;20097;-73
2023/12/02 03:56:24;;;;;;;42.70;14.05;;;5.50;94.50;;;;;;7384210;19;20016;-73
2023/12/02 03:58:53;;;;;;;27.77;12.43;;;5.60;94.40;;;;;;7385075;19;20099;-74
2023/12/02 04:01:22;;;;;;;28.65;12.55;;;5.60;94.30;;;;;;7384027;19;20010;-74
2023/12/02 04:03:53;;;;;;;37.53;14.43;;;5.30;94.10;;;;;;7405054;19;20251;-74
2023/12/02 04:06:21;;;;;;;28.15;12.52;;;5.30;94.50;;;;;;7383361;19;20031;-73
2023/12/02 04:08:50;;;;;;;33.63;13.13;;;5.30;94.60;;;;;;7385403;19;20060;-75
2023/12/02 04:11:21;;;;;;;35.50;14.15;;;5.30;94.70;;;;;;7383802;19;20066;-74
2023/12/02 04:13:49;;;;;;;34.10;13.15;;;5.30;94.80;;;;;;7386387;19;20007;-75
2023/12/02 04:16:20;;;;;;;36.13;13.20;;;5.20;94.60;;;;;;7383570;19;20269;-74
2023/12/02 04:18:48;;;;;;;22.88;8.27;;;5.20;94.80;;;;;;7404989;19;20703;-74
2023/12/02 04:21:21;;;;;;;31.38;12.60;;;5.20;94.80;;;;;;7383011;19;20007;-74
2023/12/02 04:23:51;;;;;;;36.20;13.85;;;5.30;95.00;;;;;;7385031;19;20433;-73
2023/12/02 04:26:20;;;;;;;35.53;13.77;;;5.20;95.00;;;;;;7383673;19;20019;-73
2023/12/02 04:28:49;;;;;;;36.85;13.70;;;5.30;95.30;;;;;;7383250;19;20010;-74
2023/12/02 04:31:17;;;;;;;44.38;14.73;;;5.40;95.40;;;;;;7381975;19;20025;-74
2023/12/02 04:33:46;;;;;;;43.35;13.85;;;5.40;95.30;;;;;;7404829;19;20029;-75
2023/12/02 04:36:15;;;;;;;36.60;14.23;;;5.30;94.90;;;;;;7382017;19;20013;-74
2023/12/02 04:38:46;;;;;;;37.95;15.30;;;5.30;95.00;;;;;;7382273;19;20010;-73
2023/12/02 04:41:15;;;;;;;28.63;13.80;;;5.30;95.10;;;;;;7383880;19;20354;-73
2023/12/02 04:43:43;;;;;;;33.58;13.88;;;5.20;95.20;;;;;;7385635;19;20103;-73
2023/12/02 04:46:12;;;;;;;31.83;13.70;;;5.10;95.40;;;;;;7381379;19;20023;-74
2023/12/02 04:48:41;;;;;;;36.45;14.77;;;5.20;95.90;;;;;;7404553;19;20014;-75
2023/12/02 04:51:10;;;;;;;40.60;14.25;;;5.20;95.90;;;;;;7380347;19;20074;-74
2023/12/02 04:53:39;;;;;;;33.63;12.43;;;5.10;95.90;;;;;;7381967;19;20186;-74
2023/12/02 04:56:12;;;;;;;30.40;13.98;;;5.10;95.90;;;;;;7382490;19;20011;-74
2023/12/02 04:58:41;;;;;;;41.78;14.70;;;5.00;96.30;;;;;;7384020;19;20023;-74
2023/12/02 05:01:10;;;;;;;35.13;13.85;;;4.80;96.60;;;;;;7382294;19;20009;-75
2023/12/02 05:03:39;;;;;;;36.85;15.65;;;4.90;96.90;;;;;;7403683;19;20006;-73
2023/12/02 05:06:14;;;;;;;38.08;15.52;;;4.70;97.10;;;;;;7381243;19;20007;-74
2023/12/02 05:08:44;;;;;;;38.40;13.73;;;4.70;97.30;;;;;;7380663;19;20007;-74
2023/12/02 05:11:20;;;;;;;33.83;13.93;;;4.60;97.60;;;;;;7380716;19;20014;-74
2023/12/02 05:13:49;;;;;;;35.42;15.10;;;4.60;97.90;;;;;;7381693;19;20031;-75
2023/12/02 05:16:18;;;;;;;41.95;15.45;;;4.70;98.00;;;;;;7382478;19;20003;-75
2023/12/02 05:18:47;;;;;;;40.80;14.93;;;4.70;98.10;;;;;;7403652;19;20007;-75
2023/12/02 05:21:16;;;;;;;36.92;15.15;;;4.70;98.10;;;;;;7380409;19;20050;-74
2023/12/02 05:23:45;;;;;;;44.83;15.88;;;4.70;98.30;;;;;;7380508;19;20476;-74
2023/12/02 05:26:17;;;;;;;54.17;16.80;;;4.70;98.50;;;;;;7381200;19;20011;-74
2023/12/02 05:28:46;;;;;;;35.65;15.82;;;4.70;98.70;;;;;;7381576;19;20010;-74
2023/12/02 05:31:14;;;;;;;40.78;16.48;;;4.70;98.70;;;;;;7380484;19;20119;-74
2023/12/02 05:33:43;;;;;;;39.60;16.27;;;4.70;98.70;;;;;;7404278;19;20354;-73
2023/12/02 05:36:13;;;;;;;38.03;15.52;;;4.70;98.90;;;;;;7383951;19;20015;-73
2023/12/02 05:38:42;;;;;;;40.83;16.23;;;4.60;99.10;;;;;;7388530;19;20070;-74
2023/12/02 05:41:15;;;;;;;49.85;17.00;;;4.70;99.20;;;;;;7390126;19;20055;-74
2023/12/02 05:43:44;;;;;;;47.05;16.55;;;4.70;99.20;;;;;;7388410;19;20279;-74
2023/12/02 05:46:17;;;;;;;36.08;14.15;;;4.70;99.30;;;;;;7390676;19;20019;-74
2023/12/02 05:48:48;;;;;;;40.97;16.52;;;4.70;99.70;;;;;;7405540;19;20005;-73
2023/12/02 05:51:16;;;;;;;47.13;16.17;;;4.80;99.80;;;;;;7382801;19;20369;-74
2023/12/02 05:53:45;;;;;;;51.67;16.67;;;4.80;99.80;;;;;;7380071;19;20018;-73
2023/12/02 05:56:21;;;;;;;44.42;17.35;;;4.80;99.90;;;;;;7380247;19;20007;-74
2023/12/02 05:58:50;;;;;;;44.50;17.27;;;4.70;99.90;;;;;;7380527;19;20014;-75
2023/12/02 06:01:22;;;;;;;47.92;15.80;;;4.80;99.90;;;;;;7379919;19;20007;-73
2023/12/02 06:03:51;;;;;;;64.03;16.23;;;4.70;99.90;;;;;;7401253;19;20011;-75
2023/12/02 06:06:20;;;;;;;440.70;34.55;;;4.70;99.90;;;;;;7379305;19;20005;-74
2023/12/02 06:08:49;;;;;;;55.35;17.75;;;4.80;99.90;;;;;;7378718;19;20226;-75
2023/12/02 06:11:21;;;;;;;43.25;17.80;;;4.80;99.90;;;;;;7377940;19;20013;-75
2023/12/02 06:13:50;;;;;;;38.60;16.17;;;4.80;99.90;;;;;;7380075;19;20082;-73
2023/12/02 06:16:18;;;;;;;46.08;16.75;;;4.80;99.90;;;;;;7381120;19;20379;-73
2023/12/02 06:18:47;;;;;;;46.80;16.88;;;4.90;99.90;;;;;;7401157;19;20007;-74
2023/12/02 06:21:15;;;;;;;48.17;16.00;;;4.90;99.90;;;;;;7378691;19;20275;-74
2023/12/02 06:23:44;;;;;;;51.45;14.75;;;4.80;99.90;;;;;;7379056;19;20019;-74
2023/12/02 06:26:13;;;;;;;43.70;16.60;;;4.80;99.90;;;;;;7378243;19;20278;-74
2023/12/02 06:28:49;;;;;;;43.92;17.08;;;4.70;99.90;;;;;;7379469;19;20020;-74
2023/12/02 06:31:20;;;;;;;52.70;17.17;;;4.80;99.90;;;;;;7378932;19;20007;-75
2023/12/02 06:33:49;;;;;;;;;;;4.80;99.90;;;;;;7400943;19;20258;-75
2023/12/02 06:36:17;;;;;;;41.47;15.40;;;4.80;99.90;;;;;;7378447;19;19970;-75
2023/12/02 06:38:46;;;;;;;38.40;15.85;;;4.80;99.90;;;;;;7378626;19;20390;-74
2023/12/02 06:41:15;;;;;;;45.70;16.95;;;4.80;99.90;;;;;;7381655;19;20039;-73
2023/12/02 06:43:46;;;;;;;44.53;16.75;;;4.80;99.90;;;;;;7378709;19;20010;-74
2023/12/02 06:46:22;;;;;;;42.30;16.17;;;4.70;99.90;;;;;;7379032;19;20128;-73
2023/12/02 06:48:51;;;;;;;46.72;16.98;;;4.70;99.90;;;;;;7401152;19;20006;-73
2023/12/02 06:51:24;;;;;;;47.13;16.33;;;4.60;99.90;;;;;;7377513;19;20009;-74
2023/12/02 06:53:52;;;;;;;48.03;17.52;;;4.60;99.90;;;;;;7377790;19;20045;-74
2023/12/02 06:56:22;;;;;;;50.45;16.15;;;4.60;99.90;;;;;;7378094;19;20413;-75
2023/12/02 06:58:55;;;;;;;49.78;19.25;;;4.50;99.90;;;;;;7378793;19;20070;-74
2023/12/02 07:01:28;;;;;;;40.90;16.67;;;4.50;99.90;;;;;;7378241;19;20007;-74
2023/12/02 07:03:59;;;;;;;42.42;16.23;;;4.40;99.90;;;;;;7378038;19;20010;-74
2023/12/02 07:06:28;;;;;;;;;;;4.40;99.90;;;;;;7400170;19;20003;-74
2023/12/02 07:08:57;;;;;;;47.78;15.88;;;4.40;99.90;;;;;;7376920;19;19967;-75
2023/12/02 07:11:28;;;;;;;41.30;15.05;;;4.40;99.90;;;;;;7377689;19;20397;-74
2023/12/02 07:14:00;;;;;;;54.47;18.35;;;4.40;99.90;;;;;;7384716;19;20032;-75
2023/12/02 07:16:30;;;;;;;;;;;4.40;99.90;;;;;;7390806;19;20059;-75
2023/12/02 07:18:59;;;;;;;46.90;14.32;;;4.40;99.90;;;;;;7385880;19;19917;-74
2023/12/02 07:21:29;;;;;;;43.33;16.10;;;4.20;99.90;;;;;;7406843;19;20003;-74
2023/12/02 07:23:58;;;;;;;53.05;16.83;;;4.20;99.90;;;;;;7385596;19;20066;-75
2023/12/02 07:26:26;;;;;;;49.85;17.38;;;4.20;99.90;;;;;;7386316;19;20082;-74
2023/12/02 07:28:55;;;;;;;43.85;16.33;;;4.20;99.90;;;;;;7385478;19;20019;-75
2023/12/02 07:31:27;;;;;;;52.10;18.60;;;4.10;99.90;;;;;;7384435;19;20058;-74
2023/12/02 07:33:56;;;;;;;46.65;17.63;;;4.10;99.90;;;;;;7384830;19;20645;-74
2023/12/02 07:36:24;;;;;;;49.47;17.95;;;4.20;99.90;;;;;;7403623;19;20271;-75
2023/12/02 07:38:53;;;;;;;56.72;18.17;;;4.10;99.90;;;;;;7385177;19;20006;-74
2023/12/02 07:41:22;;;;;;;46.28;17.42;;;4.10;99.90;;;;;;7385631;19;20016;-74
2023/12/02 07:43:51;;;;;;;37.38;15.65;;;4.10;99.90;;;;;;7384883;19;20019;-73
2023/12/02 07:46:28;;;;;;;58.75;17.90;;;4.00;99.90;;;;;;7384821;19;20006;-74
2023/12/02 07:48:57;;;;;;;51.53;18.80;;;4.10;99.90;;;;;;7385974;19;20027;-74
2023/12/02 07:51:25;;;;;;;50.30;17.92;;;4.00;99.90;;;;;;7405873;19;20370;-75
2023/12/02 07:53:54;;;;;;;54.63;18.80;;;4.00;99.90;;;;;;7384742;19;20058;-74
2023/12/02 07:56:23;;;;;;;52.03;17.98;;;4.00;99.90;;;;;;7384131;19;20022;-74
2023/12/02 07:58:54;;;;;;;54.03;16.95;;;3.90;99.90;;;;;;7384141;19;20007;-74
2023/12/02 08:01:23;;;;;;;57.50;18.77;;;3.80;99.90;;;;;;7382707;19;20003;-74
2023/12/02 08:03:56;;;;;;;66.85;20.05;;;3.70;99.90;;;;;;7406719;19;20014;-73
2023/12/02 08:06:24;;;;;;;44.35;17.65;;;3.80;99.90;;;;;;7390372;19;20035;-74
2023/12/02 08:08:53;;;;;;;59.17;19.08;;;3.50;99.90;;;;;;7392432;19;20378;-74
2023/12/02 08:11:22;;;;;;;53.50;17.98;;;3.60;99.90;;;;;;7394625;19;20006;-74
2023/12/02 08:13:51;;;;;;;48.55;18.15;;;3.60;99.90;;;;;;7395680;19;20007;-74
2023/12/02 08:16:19;;;;;;;59.38;19.58;;;3.50;99.90;;;;;;7394620;19;20010;-74
2023/12/02 08:18:48;;;;;;;48.70;18.27;;;3.60;99.90;;;;;;7408149;19;20272;-74
2023/12/02 08:21:19;;;;;;;56.42;17.55;;;3.70;99.90;;;;;;7383611;19;20007;-74
2023/12/02 08:23:48;;;;;;;;;;;3.60;99.90;;;;;;7386123;19;20078;-75
2023/12/02 08:26:16;;;;;;;39.35;14.52;;;3.70;99.90;;;;;;7381680;19;19963;-74
2023/12/02 08:28:48;;;;;;;50.65;17.98;;;3.80;99.90;;;;;;7383330;19;20379;-75
2023/12/02 08:31:19;;;;;;;73.97;20.42;;;3.80;99.90;;;;;;7383782;19;20057;-74
2023/12/02 08:33:47;;;;;;;55.35;18.77;;;3.70;99.90;;;;;;7404949;19;20021;-74
2023/12/02 08:36:18;;;;;;;51.53;19.25;;;3.90;99.90;;;;;;7381405;19;20011;-75
2023/12/02 08:38:47;;;;;;;;;;;3.90;99.90;;;;;;7386318;19;20003;-74
2023/12/02 08:41:16;;;;;;;63.53;17.92;;;4.00;99.90;;;;;;7383137;19;19915;-75
2023/12/02 08:43:45;;;;;;;55.88;20.52;;;4.00;99.90;;;;;;7381872;19;20006;-75
2023/12/02 08:46:16;;;;;;;48.90;19.10;;;4.00;99.90;;;;;;7384386;19;20014;-75
2023/12/02 08:48:45;;;;;;;51.60;17.80;;;4.10;99.90;;;;;;7405081;19;20020;-75
2023/12/02 08:51:14;;;;;;;60.20;21.42;;;4.20;99.90;;;;;;7381551;19;20010;-75
2023/12/02 08:53:45;;;;;;;58.28;19.27;;;4.10;99.90;;;;;;7381384;19;20010;-74
2023/12/02 08:56:13;;;;;;;;;;;4.20;99.90;;;;;;7383063;19;20101;-74
2023/12/02 08:58:42;;;;;;;55.05;18.85;;;4.10;99.90;;;;;;7385641;19;19907;-75
2023/12/02 09:01:11;;;;;;;48.60;18.48;;;4.10;99.90;;;;;;7382283;19;20015;-75
2023/12/02 09:03:39;;;;;;;52.28;18.67;;;4.00;99.90;;;;;;7403962;19;20062;-75
2023/12/02 09:06:09;;;;;;;64.45;19.77;;;3.90;99.90;;;;;;7381448;19;20019;-75
2023/12/02 09:08:37;;;;;;;57.97;20.27;;;3.90;99.90;;;;;;7382205;19;20023;-74
2023/12/02 09:11:10;;;;;;;206.20;28.13;;;3.90;99.90;;;;;;7382371;19;20013;-75
2023/12/02 09:13:46;;;;;;;67.65;21.13;;;4.00;99.90;;;;;;7380786;19;20015;-74
2023/12/02 09:16:20;;;;;;;56.00;18.42;;;3.80;99.90;;;;;;7381826;19;20031;-74
2023/12/02 09:18:49;;;;;;;54.00;19.05;;;3.80;99.90;;;;;;7403225;19;20006;-74
2023/12/02 09:21:44;;;;;;;50.15;19.17;;;3.70;99.90;;;;;;7380880;19;20062;-75
2023/12/02 09:24:35;;;;;;;54.65;20.42;;;3.70;99.90;;;;;;7380124;19;20014;-74
2023/12/02 09:27:08;;;;;;;;;;;3.80;99.90;;;;;;7381546;19;20222;-75
2023/12/02 09:29:40;;;;;;;46.90;18.45;;;3.70;99.90;;;;;;7380483;19;19999;-75
2023/12/02 09:32:46;;;;;;;65.22;21.25;;;3.80;99.90;;;;;;7381075;19;20039;-74
2023/12/02 09:35:15;;;;;;;55.42;20.17;;;3.50;99.90;;;;;;7380786;19;20007;-75
2023/12/02 09:37:58;;;;;;;60.63;20.27;;;3.70;99.90;;;;;;7383067;19;20070;-75
2023/12/02 09:40:40;;;;;;;56.55;19.48;;;3.70;99.90;;;;;;7382482;19;20014;-74
2023/12/02 09:43:23;;;;;;;57.85;17.85;;;3.70;99.90;;;;;;7380532;19;20011;-74
2023/12/02 09:46:15;;;;;;;60.90;21.10;;;3.50;99.90;;;;;;7404022;19;20006;-74
2023/12/02 09:48:51;;;;;;;45.92;18.27;;;3.70;99.90;;;;;;7383647;19;20070;-74
2023/12/02 09:51:33;;;;;;;55.17;19.48;;;3.60;99.90;;;;;;7380331;19;20002;-74
2023/12/02 09:54:13;;;;;;;57.88;19.40;;;3.70;99.90;;;;;;7380134;19;20023;-74
2023/12/02 09:56:46;;;;;;;56.75;20.52;;;4.00;99.90;;;;;;7381003;19;20109;-74
2023/12/02 09:59:25;;;;;;;61.83;21.80;;;4.10;99.90;;;;;;7380117;19;20248;-74
2023/12/02 10:02:02;;;;;;;65.65;20.58;;;4.10;99.90;;;;;;7381506;19;20102;-74
2023/12/02 10:04:44;;;;;;;59.17;20.23;;;4.10;99.90;;;;;;7380203;19;20010;-73
2023/12/02 10:07:20;;;;;;;61.72;19.90;;;4.30;99.90;;;;;;7379478;19;20019;-74
2023/12/02 10:10:01;;;;;;;50.70;19.40;;;4.30;99.90;;;;;;7401101;19;20014;-74
2023/12/02 10:12:35;;;;;;;;;;;4.40;99.90;;;;;;7378952;19;20003;-73
2023/12/02 10:15:11;;;;;;;66.97;19.67;;;4.60;99.90;;;;;;7379163;19;19915;-74
2023/12/02 10:17:52;;;;;;;51.25;19.33;;;4.60;99.90;;;;;;7381834;19;20066;-75
2023/12/02 10:20:26;;;;;;;57.97;20.60;;;4.70;99.90;;;;;;7378670;19;20017;-74
2023/12/02 10:23:01;;;;;;;57.13;19.80;;;4.50;99.90;;;;;;7380581;19;20027;-75
2023/12/02 10:25:35;;;;;;;53.83;19.42;;;4.60;99.90;;;;;;7379727;19;20011;-74
2023/12/02 10:28:13;;;;;;;49.40;19.00;;;4.60;99.90;;;;;;7377624;19;20010;-75
2023/12/02 10:30:52;;;;;;;64.38;21.08;;;4.70;99.90;;;;;;7399660;19;20003;-74
2023/12/02 10:33:29;;;;;;;51.05;19.08;;;4.80;99.90;;;;;;7377296;19;20030;-74
2023/12/02 10:36:07;;;;;;;44.88;17.45;;;5.00;99.90;;;;;;7380348;19;20003;-77
2023/12/02 10:38:48;;;;;;;46.78;18.02;;;4.90;99.90;;;;;;7386537;19;20117;-75
2023/12/02 10:41:23;;;;;;;53.30;19.48;;;4.70;99.90;;;;;;7386005;19;20003;-75
2023/12/02 10:43:57;;;;;;;55.33;18.35;;;4.70;99.90;;;;;;7386689;19;20010;-75
2023/12/02 10:46:29;;;;;;;43.55;16.88;;;4.70;99.90;;;;;;7386382;19;20383;-75
2023/12/02 10:48:59;;;;;;;43.42;16.60;;;4.60;99.90;;;;;;7384560;19;20023;-74
2023/12/02 10:51:30;;;;;;;47.17;17.60;;;4.80;99.90;;;;;;7400225;19;20010;-74
2023/12/02 10:54:02;;;;;;;46.58;16.20;;;5.00;99.90;;;;;;7376811;19;20077;-73
2023/12/02 10:56:35;;;;;;;47.22;17.25;;;5.10;99.90;;;;;;7380238;19;20010;-76
2023/12/02 10:59:05;;;;;;;48.85;16.35;;;5.10;99.90;;;;;;7377139;19;20242;-73
2023/12/02 11:01:42;;;;;;;42.97;16.08;;;5.00;99.90;;;;;;7377367;19;20042;-75
2023/12/02 11:04:20;;;;;;;42.22;15.88;;;5.20;99.90;;;;;;7379348;19;20007;-75
2023/12/02 11:06:54;;;;;;;37.58;14.57;;;5.30;99.90;;;;;;7399097;19;20003;-75
2023/12/02 11:09:34;;;;;;;34.10;13.98;;;5.30;99.90;;;;;;7375337;19;20013;-74
2023/12/02 11:12:10;;;;;;;36.65;13.38;;;5.40;99.90;;;;;;7379268;19;20018;-74
2023/12/02 11:14:43;;;;;;;35.95;14.48;;;5.20;99.90;;;;;;7378823;19;20062;-74
2023/12/02 11:17:24;;;;;;;36.33;14.32;;;5.30;99.90;;;;;;7377660;19;20374;-74
2023/12/02 11:20:05;;;;;;;;;;;5.40;99.90;;;;;;7378833;19;20306;-74
2023/12/02 11:22:55;;;;;;;35.53;14.02;;;5.30;99.90;;;;;;7377808;19;20237;-73
2023/12/02 11:25:30;;;;;;;43.10;14.63;;;5.50;99.90;;;;;;7376474;19;20023;-73
2023/12/02 11:28:06;;;;;;;43.55;15.18;;;5.30;99.90;;;;;;7377319;19;20006;-75
2023/12/02 11:30:57;;;;;;;46.22;18.77;;;5.50;99.90;;;;;;7400101;19;20337;-73
2023/12/02 11:33:43;;;;;;;39.55;14.65;;;5.50;99.90;;;;;;7375210;19;20011;-72
2023/12/02 11:36:18;;;;;;;40.25;14.00;;;5.60;99.90;;;;;;7378061;19;20066;-73
2023/12/02 11:39:01;;;;;;;30.40;11.05;;;5.40;99.90;;;;;;7377025;19;20002;-74
2023/12/02 11:41:40;;;;;;;33.97;13.73;;;5.50;99.90;;;;;;7379044;19;20040;-77
2023/12/02 11:44:20;;;;;;;39.90;14.48;;;5.60;99.90;;;;;;7377851;19;19999;-75
2023/12/02 11:47:05;;;;;;;27.25;11.25;;;5.70;99.90;;;;;;7379361;19;20024;-75
2023/12/02 11:49:49;;;;;;;26.50;12.18;;;5.80;99.90;;;;;;7377814;19;20411;-74
2023/12/02 11:52:31;;;;;;;38.80;13.25;;;5.70;99.80;;;;;;7378440;19;20011;-75
2023/12/02 11:55:14;;;;;;;32.70;13.02;;;5.70;99.40;;;;;;7377282;19;20032;-74
2023/12/02 11:58:04;;;;;;;39.55;14.88;;;5.80;99.70;;;;;;7401310;19;20019;-75
2023/12/02 12:00:52;;;;;;;36.83;14.75;;;5.90;99.90;;;;;;7379689;19;20015;-76
2023/12/02 12:03:37;;;;;;;35.08;14.02;;;6.00;99.90;;;;;;7384701;19;20067;-78
2023/12/02 12:06:18;;;;;;;39.35;14.60;;;6.10;98.80;;;;;;7386154;19;20025;-76
2023/12/02 12:09:03;;;;;;;33.40;13.65;;;6.20;98.90;;;;;;7382622;19;20019;-76
2023/12/02 12:11:33;;;;;;;33.97;13.02;;;6.20;99.30;;;;;;7383677;19;20014;-76
2023/12/02 12:14:04;;;;;;;33.63;14.15;;;6.20;99.00;;;;;;7382469;19;20007;-76
2023/12/02 12:16:33;;;;;;;;;;;6.20;98.20;;;;;;7383764;19;20031;-75
2023/12/02 12:19:01;;;;;;;33.92;13.18;;;6.30;98.10;;;;;;7382892;19;20003;-75
2023/12/02 12:21:34;;;;;;;32.88;13.15;;;6.30;98.00;;;;;;7406906;19;20011;-74
2023/12/02 12:24:03;;;;;;;36.05;14.65;;;6.40;97.90;;;;;;7383440;19;20007;-74
2023/12/02 12:26:32;;;;;;;32.55;13.60;;;6.50;97.30;;;;;;7383426;19;20030;-75
2023/12/02 12:29:01;;;;;;;33.50;13.95;;;6.30;98.30;;;;;;7386094;19;19995;-74
2023/12/02 12:31:31;;;;;;;45.28;14.82;;;6.20;98.70;;;;;;7386512;19;20002;-75
2023/12/02 12:34:03;;;;;;;35.35;12.80;;;6.40;98.60;;;;;;7382482;19;20007;-76
2023/12/02 12:36:35;;;;;;;29.40;11.52;;;6.50;97.60;;;;;;7410380;19;20002;-77
2023/12/02 12:39:03;;;;;;;;;;;6.60;97.20;;;;;;7387666;19;20231;-77
2023/12/02 12:41:34;;;;;;;36.70;12.30;;;6.70;97.60;;;;;;7383435;19;19918;-78
2023/12/02 12:44:06;;;;;;;32.42;12.10;;;6.80;96.60;;;;;;7384452;19;20003;-74
2023/12/02 12:46:35;;;;;;;30.30;12.38;;;6.90;96.80;;;;;;7383599;19;19998;-75
2023/12/02 12:49:07;;;;;;;30.88;12.85;;;7.00;95.90;;;;;;7382963;19;20023;-78
2023/12/02 12:51:43;;;;;;;26.98;11.80;;;7.10;95.70;;;;;;7404413;19;20046;-78
2023/12/02 12:54:18;;;;;;;29.63;12.93;;;7.10;94.90;;;;;;7384123;19;20254;-78
2023/12/02 12:56:50;;;;;;;30.33;11.23;;;6.90;94.50;;;;;;7388674;19;20006;-77
2023/12/02 12:59:26;;;;;;;28.52;11.10;;;7.00;94.40;;;;;;7386670;19;20010;-76
2023/12/02 13:02:07;;;;;;;29.80;11.43;;;7.10;95.10;;;;;;7385222;19;20026;-76
2023/12/02 13:04:39;;;;;;;35.17;13.10;;;7.20;95.10;;;;;;7395135;19;20014;-75
2023/12/02 13:07:13;;;;;;;37.20;13.70;;;7.30;94.30;;;;;;7395270;19;20009;-75